sensor_id;sensor_type;location;lat;lon;timestamp;P1;durP1;ratioP1;P2;durP2;ratioP2
66607;SDS011;53462;39.616;8.824;2023-03-08T00:00:59;14.18;;;7.95;;
66607;SDS011;53462;39.616;8.824;2023-03-08T00:03:25;15.07;;;7.28;;
66607;SDS011;53462;39.616;8.824;2023-03-08T00:05:51;7.97;;;4.55;;
66607;SDS011;53462;39.616;8.824;2023-03-08T00:08:17;10.52;;;3.75;;
66607;SDS011;53462;39.616;8.824;2023-03-08T00:10:43;9.07;;;3.83;;
66607;SDS011;53462;39.616;8.824;2023-03-08T00:13:10;7.28;;;3.35;;
66607;SDS011;53462;39.616;8.824;2023-03-08T00:15:36;7.03;;;3.38;;
66607;SDS011;53462;39.616;8.824;2023-03-08T00:18:03;6.75;;;3.42;;
66607;SDS011;53462;39.616;8.824;2023-03-08T00:20:31;7.55;;;3.03;;
66607;SDS011;53462;39.616;8.824;2023-03-08T00:22:57;9.55;;;4.10;;
66607;SDS011;53462;39.616;8.824;2023-03-08T00:25:23;8.50;;;3.65;;
66607;SDS011;53462;39.616;8.824;2023-03-08T00:27:49;8.82;;;3.65;;
66607;SDS011;53462;39.616;8.824;2023-03-08T00:30:15;6.22;;;3.53;;
66607;SDS011;53462;39.616;8.824;2023-03-08T00:32:41;9.98;;;3.53;;
66607;SDS011;53462;39.616;8.824;2023-03-08T00:35:08;7.82;;;3.75;;
66607;SDS011;53462;39.616;8.824;2023-03-08T00:37:36;6.55;;;3.80;;
66607;SDS011;53462;39.616;8.824;2023-03-08T00:40:02;8.00;;;3.63;;
66607;SDS011;53462;39.616;8.824;2023-03-08T00:42:33;9.20;;;3.83;;
66607;SDS011;53462;39.616;8.824;2023-03-08T00:44:59;9.85;;;4.03;;
66607;SDS011;53462;39.616;8.824;2023-03-08T00:47:26;7.65;;;3.95;;
66607;SDS011;53462;39.616;8.824;2023-03-08T00:49:52;9.90;;;4.85;;
66607;SDS011;53462;39.616;8.824;2023-03-08T00:52:19;11.85;;;5.00;;
66607;SDS011;53462;39.616;8.824;2023-03-08T00:54:45;13.05;;;5.63;;
66607;SDS011;53462;39.616;8.824;2023-03-08T00:57:11;12.88;;;5.57;;
66607;SDS011;53462;39.616;8.824;2023-03-08T00:59:37;16.45;;;5.85;;
66607;SDS011;53462;39.616;8.824;2023-03-08T01:02:03;15.80;;;5.78;;
66607;SDS011;53462;39.616;8.824;2023-03-08T01:04:31;10.73;;;5.38;;
66607;SDS011;53462;39.616;8.824;2023-03-08T01:06:58;14.95;;;6.35;;
66607;SDS011;53462;39.616;8.824;2023-03-08T01:09:25;11.45;;;5.57;;
66607;SDS011;53462;39.616;8.824;2023-03-08T01:11:51;15.30;;;5.75;;
66607;SDS011;53462;39.616;8.824;2023-03-08T01:14:16;12.52;;;5.60;;
66607;SDS011;53462;39.616;8.824;2023-03-08T01:16:42;11.07;;;5.95;;
66607;SDS011;53462;39.616;8.824;2023-03-08T01:19:09;11.40;;;5.88;;
66607;SDS011;53462;39.616;8.824;2023-03-08T01:21:35;11.55;;;5.90;;
66607;SDS011;53462;39.616;8.824;2023-03-08T01:24:02;10.02;;;5.18;;
66607;SDS011;53462;39.616;8.824;2023-03-08T01:26:28;9.43;;;5.28;;
66607;SDS011;53462;39.616;8.824;2023-03-08T01:28:54;10.98;;;5.20;;
66607;SDS011;53462;39.616;8.824;2023-03-08T01:31:22;9.75;;;4.70;;
66607;SDS011;53462;39.616;8.824;2023-03-08T01:33:58;8.15;;;4.68;;
66607;SDS011;53462;39.616;8.824;2023-03-08T01:36:25;8.60;;;4.47;;
66607;SDS011;53462;39.616;8.824;2023-03-08T01:38:52;9.52;;;4.47;;
66607;SDS011;53462;39.616;8.824;2023-03-08T01:43:48;8.95;;;4.07;;
66607;SDS011;53462;39.616;8.824;2023-03-08T01:51:25;6.85;;;3.88;;
66607;SDS011;53462;39.616;8.824;2023-03-08T01:54:00;10.55;;;4.53;;
66607;SDS011;53462;39.616;8.824;2023-03-08T01:56:31;10.32;;;4.43;;
66607;SDS011;53462;39.616;8.824;2023-03-08T01:58:57;10.45;;;4.00;;
66607;SDS011;53462;39.616;8.824;2023-03-08T02:01:24;9.20;;;4.20;;
66607;SDS011;53462;39.616;8.824;2023-03-08T02:03:54;6.35;;;3.90;;
66607;SDS011;53462;39.616;8.824;2023-03-08T02:06:21;10.25;;;4.25;;
66607;SDS011;53462;39.616;8.824;2023-03-08T02:08:47;7.75;;;4.40;;
66607;SDS011;53462;39.616;8.824;2023-03-08T02:11:13;7.38;;;3.95;;
66607;SDS011;53462;39.616;8.824;2023-03-08T02:13:42;8.05;;;3.50;;
66607;SDS011;53462;39.616;8.824;2023-03-08T02:16:10;9.10;;;3.65;;
66607;SDS011;53462;39.616;8.824;2023-03-08T02:18:48;6.30;;;3.55;;
66607;SDS011;53462;39.616;8.824;2023-03-08T02:21:16;6.95;;;3.30;;
66607;SDS011;53462;39.616;8.824;2023-03-08T02:23:41;6.05;;;3.60;;
66607;SDS011;53462;39.616;8.824;2023-03-08T02:26:07;4.80;;;3.40;;
66607;SDS011;53462;39.616;8.824;2023-03-08T02:28:34;8.57;;;3.72;;
66607;SDS011;53462;39.616;8.824;2023-03-08T02:31:01;9.38;;;3.80;;
66607;SDS011;53462;39.616;8.824;2023-03-08T02:33:27;7.63;;;3.97;;
66607;SDS011;53462;39.616;8.824;2023-03-08T02:35:55;6.47;;;3.75;;
66607;SDS011;53462;39.616;8.824;2023-03-08T02:38:22;9.52;;;4.05;;
66607;SDS011;53462;39.616;8.824;2023-03-08T02:40:48;7.68;;;3.60;;
66607;SDS011;53462;39.616;8.824;2023-03-08T02:43:17;7.00;;;3.75;;
66607;SDS011;53462;39.616;8.824;2023-03-08T02:45:44;9.95;;;4.15;;
66607;SDS011;53462;39.616;8.824;2023-03-08T02:48:10;6.93;;;3.95;;
66607;SDS011;53462;39.616;8.824;2023-03-08T02:50:36;7.88;;;3.80;;
66607;SDS011;53462;39.616;8.824;2023-03-08T02:53:03;8.80;;;4.00;;
66607;SDS011;53462;39.616;8.824;2023-03-08T02:55:30;7.93;;;3.70;;
66607;SDS011;53462;39.616;8.824;2023-03-08T02:58:04;6.88;;;3.85;;
66607;SDS011;53462;39.616;8.824;2023-03-08T03:00:32;5.82;;;3.70;;
66607;SDS011;53462;39.616;8.824;2023-03-08T03:02:59;8.23;;;3.95;;
66607;SDS011;53462;39.616;8.824;2023-03-08T03:05:26;7.53;;;3.70;;
66607;SDS011;53462;39.616;8.824;2023-03-08T03:07:53;6.40;;;3.40;;
66607;SDS011;53462;39.616;8.824;2023-03-08T03:10:21;10.65;;;3.72;;
66607;SDS011;53462;39.616;8.824;2023-03-08T03:12:47;9.38;;;4.05;;
66607;SDS011;53462;39.616;8.824;2023-03-08T03:15:17;7.70;;;3.30;;
66607;SDS011;53462;39.616;8.824;2023-03-08T03:17:46;8.75;;;3.75;;
66607;SDS011;53462;39.616;8.824;2023-03-08T03:20:12;8.55;;;3.50;;
66607;SDS011;53462;39.616;8.824;2023-03-08T03:22:38;5.68;;;3.75;;
66607;SDS011;53462;39.616;8.824;2023-03-08T03:25:06;8.35;;;4.30;;
66607;SDS011;53462;39.616;8.824;2023-03-08T03:27:32;7.60;;;3.83;;
66607;SDS011;53462;39.616;8.824;2023-03-08T03:29:58;8.48;;;4.10;;
66607;SDS011;53462;39.616;8.824;2023-03-08T03:32:24;9.93;;;4.32;;
66607;SDS011;53462;39.616;8.824;2023-03-08T03:34:51;8.43;;;3.80;;
66607;SDS011;53462;39.616;8.824;2023-03-08T03:37:19;7.82;;;4.05;;
66607;SDS011;53462;39.616;8.824;2023-03-08T03:39:45;10.07;;;4.05;;
66607;SDS011;53462;39.616;8.824;2023-03-08T03:42:14;8.60;;;3.70;;
66607;SDS011;53462;39.616;8.824;2023-03-08T03:44:48;5.90;;;3.70;;
66607;SDS011;53462;39.616;8.824;2023-03-08T03:47:18;9.02;;;4.53;;
66607;SDS011;53462;39.616;8.824;2023-03-08T03:49:45;7.35;;;3.90;;
66607;SDS011;53462;39.616;8.824;2023-03-08T03:52:13;13.50;;;5.03;;
66607;SDS011;53462;39.616;8.824;2023-03-08T03:54:43;9.55;;;4.10;;
66607;SDS011;53462;39.616;8.824;2023-03-08T03:57:09;8.52;;;4.28;;
66607;SDS011;53462;39.616;8.824;2023-03-08T03:59:39;8.82;;;4.40;;
66607;SDS011;53462;39.616;8.824;2023-03-08T04:02:05;11.70;;;4.40;;
66607;SDS011;53462;39.616;8.824;2023-03-08T04:04:40;6.53;;;4.20;;
66607;SDS011;53462;39.616;8.824;2023-03-08T04:07:07;8.57;;;4.47;;
66607;SDS011;53462;39.616;8.824;2023-03-08T04:09:39;6.82;;;3.53;;
66607;SDS011;53462;39.616;8.824;2023-03-08T04:12:10;8.20;;;3.60;;
66607;SDS011;53462;39.616;8.824;2023-03-08T04:14:37;9.18;;;3.72;;
66607;SDS011;53462;39.616;8.824;2023-03-08T04:17:05;9.10;;;3.10;;
66607;SDS011;53462;39.616;8.824;2023-03-08T04:19:38;5.97;;;2.67;;
66607;SDS011;53462;39.616;8.824;2023-03-08T04:22:06;11.02;;;3.10;;
66607;SDS011;53462;39.616;8.824;2023-03-08T04:24:39;8.27;;;2.70;;
66607;SDS011;53462;39.616;8.824;2023-03-08T04:27:10;6.88;;;2.35;;
66607;SDS011;53462;39.616;8.824;2023-03-08T04:29:35;11.10;;;2.63;;
66607;SDS011;53462;39.616;8.824;2023-03-08T04:32:02;8.95;;;2.10;;
66607;SDS011;53462;39.616;8.824;2023-03-08T04:34:38;7.25;;;2.13;;
66607;SDS011;53462;39.616;8.824;2023-03-08T04:37:05;12.35;;;2.67;;
66607;SDS011;53462;39.616;8.824;2023-03-08T04:39:31;9.93;;;2.47;;
66607;SDS011;53462;39.616;8.824;2023-03-08T04:41:57;10.15;;;2.42;;
66607;SDS011;53462;39.616;8.824;2023-03-08T04:44:29;11.55;;;2.40;;
66607;SDS011;53462;39.616;8.824;2023-03-08T04:46:55;7.80;;;2.20;;
66607;SDS011;53462;39.616;8.824;2023-03-08T04:49:34;9.13;;;2.22;;
66607;SDS011;53462;39.616;8.824;2023-03-08T04:52:02;11.25;;;2.30;;
66607;SDS011;53462;39.616;8.824;2023-03-08T04:54:31;10.80;;;2.25;;
66607;SDS011;53462;39.616;8.824;2023-03-08T04:57:01;8.68;;;2.30;;
66607;SDS011;53462;39.616;8.824;2023-03-08T04:59:29;11.40;;;2.60;;
66607;SDS011;53462;39.616;8.824;2023-03-08T05:01:58;12.75;;;3.08;;
66607;SDS011;53462;39.616;8.824;2023-03-08T05:04:25;18.00;;;2.85;;
66607;SDS011;53462;39.616;8.824;2023-03-08T05:06:51;8.32;;;2.45;;
66607;SDS011;53462;39.616;8.824;2023-03-08T05:09:22;8.88;;;2.63;;
66607;SDS011;53462;39.616;8.824;2023-03-08T05:11:49;9.93;;;2.97;;
66607;SDS011;53462;39.616;8.824;2023-03-08T05:14:15;11.10;;;2.80;;
66607;SDS011;53462;39.616;8.824;2023-03-08T05:16:41;8.23;;;2.70;;
66607;SDS011;53462;39.616;8.824;2023-03-08T05:19:08;9.63;;;2.95;;
66607;SDS011;53462;39.616;8.824;2023-03-08T05:21:41;9.25;;;2.90;;
66607;SDS011;53462;39.616;8.824;2023-03-08T05:24:07;7.53;;;2.40;;
66607;SDS011;53462;39.616;8.824;2023-03-08T05:26:35;12.30;;;2.83;;
66607;SDS011;53462;39.616;8.824;2023-03-08T05:29:01;8.98;;;2.60;;
66607;SDS011;53462;39.616;8.824;2023-03-08T05:31:29;8.80;;;2.83;;
66607;SDS011;53462;39.616;8.824;2023-03-08T05:33:57;10.23;;;3.17;;
66607;SDS011;53462;39.616;8.824;2023-03-08T05:36:45;10.82;;;2.58;;
66607;SDS011;53462;39.616;8.824;2023-03-08T05:39:10;8.90;;;2.50;;
66607;SDS011;53462;39.616;8.824;2023-03-08T05:41:45;8.93;;;2.75;;
66607;SDS011;53462;39.616;8.824;2023-03-08T05:44:17;18.75;;;3.95;;
66607;SDS011;53462;39.616;8.824;2023-03-08T05:46:43;12.52;;;3.47;;
66607;SDS011;53462;39.616;8.824;2023-03-08T05:49:10;13.13;;;3.35;;
66607;SDS011;53462;39.616;8.824;2023-03-08T05:51:36;10.75;;;3.17;;
66607;SDS011;53462;39.616;8.824;2023-03-08T05:54:02;10.48;;;3.63;;
66607;SDS011;53462;39.616;8.824;2023-03-08T05:56:30;9.93;;;4.53;;
66607;SDS011;53462;39.616;8.824;2023-03-08T05:59:12;11.20;;;3.80;;
66607;SDS011;53462;39.616;8.824;2023-03-08T06:01:38;12.70;;;5.05;;
66607;SDS011;53462;39.616;8.824;2023-03-08T06:04:14;16.90;;;7.90;;
66607;SDS011;53462;39.616;8.824;2023-03-08T06:06:43;16.30;;;6.32;;
66607;SDS011;53462;39.616;8.824;2023-03-08T06:09:08;17.77;;;9.30;;
66607;SDS011;53462;39.616;8.824;2023-03-08T06:11:38;16.23;;;8.73;;
66607;SDS011;53462;39.616;8.824;2023-03-08T06:14:04;14.65;;;7.38;;
66607;SDS011;53462;39.616;8.824;2023-03-08T06:16:32;21.88;;;10.15;;
66607;SDS011;53462;39.616;8.824;2023-03-08T06:18:58;17.85;;;7.35;;
66607;SDS011;53462;39.616;8.824;2023-03-08T06:21:26;18.15;;;9.07;;
66607;SDS011;53462;39.616;8.824;2023-03-08T06:23:58;17.65;;;5.82;;
66607;SDS011;53462;39.616;8.824;2023-03-08T06:26:24;21.58;;;5.55;;
66607;SDS011;53462;39.616;8.824;2023-03-08T06:28:50;19.63;;;5.55;;
66607;SDS011;53462;39.616;8.824;2023-03-08T06:31:17;11.55;;;5.22;;
66607;SDS011;53462;39.616;8.824;2023-03-08T06:33:44;15.00;;;5.60;;
66607;SDS011;53462;39.616;8.824;2023-03-08T06:36:16;12.95;;;5.13;;
66607;SDS011;53462;39.616;8.824;2023-03-08T06:38:44;17.65;;;6.65;;
66607;SDS011;53462;39.616;8.824;2023-03-08T06:41:10;22.65;;;5.30;;
66607;SDS011;53462;39.616;8.824;2023-03-08T06:43:37;16.13;;;4.32;;
66607;SDS011;53462;39.616;8.824;2023-03-08T06:46:07;13.85;;;5.45;;
66607;SDS011;53462;39.616;8.824;2023-03-08T06:48:35;14.73;;;7.38;;
66607;SDS011;53462;39.616;8.824;2023-03-08T06:51:02;19.88;;;9.70;;
66607;SDS011;53462;39.616;8.824;2023-03-08T06:53:30;22.50;;;11.13;;
66607;SDS011;53462;39.616;8.824;2023-03-08T06:56:01;24.65;;;12.40;;
66607;SDS011;53462;39.616;8.824;2023-03-08T06:58:34;21.33;;;9.95;;
66607;SDS011;53462;39.616;8.824;2023-03-08T07:01:01;21.60;;;12.63;;
66607;SDS011;53462;39.616;8.824;2023-03-08T07:03:30;40.33;;;20.45;;
66607;SDS011;53462;39.616;8.824;2023-03-08T07:05:58;32.63;;;16.42;;
66607;SDS011;53462;39.616;8.824;2023-03-08T07:08:25;31.33;;;14.65;;
66607;SDS011;53462;39.616;8.824;2023-03-08T07:10:51;26.35;;;12.70;;
66607;SDS011;53462;39.616;8.824;2023-03-08T07:13:17;43.47;;;20.80;;
66607;SDS011;53462;39.616;8.824;2023-03-08T07:15:44;29.88;;;14.73;;
66607;SDS011;53462;39.616;8.824;2023-03-08T07:18:10;23.13;;;9.05;;
66607;SDS011;53462;39.616;8.824;2023-03-08T07:20:36;12.77;;;7.28;;
66607;SDS011;53462;39.616;8.824;2023-03-08T07:23:01;12.10;;;6.03;;
66607;SDS011;53462;39.616;8.824;2023-03-08T07:25:27;21.02;;;8.32;;
66607;SDS011;53462;39.616;8.824;2023-03-08T07:27:54;15.95;;;7.07;;
66607;SDS011;53462;39.616;8.824;2023-03-08T07:30:20;14.35;;;6.38;;
66607;SDS011;53462;39.616;8.824;2023-03-08T07:32:46;24.00;;;9.45;;
66607;SDS011;53462;39.616;8.824;2023-03-08T07:35:13;14.40;;;5.00;;
66607;SDS011;53462;39.616;8.824;2023-03-08T07:37:42;12.48;;;3.28;;
66607;SDS011;53462;39.616;8.824;2023-03-08T07:40:10;8.40;;;2.72;;
66607;SDS011;53462;39.616;8.824;2023-03-08T07:42:36;11.82;;;3.70;;
66607;SDS011;53462;39.616;8.824;2023-03-08T07:45:15;8.98;;;3.28;;
66607;SDS011;53462;39.616;8.824;2023-03-08T07:47:41;14.52;;;4.63;;
66607;SDS011;53462;39.616;8.824;2023-03-08T07:50:07;13.98;;;4.10;;
66607;SDS011;53462;39.616;8.824;2023-03-08T07:52:34;12.73;;;4.20;;
66607;SDS011;53462;39.616;8.824;2023-03-08T07:55:00;9.93;;;3.38;;
66607;SDS011;53462;39.616;8.824;2023-03-08T07:57:27;8.73;;;3.75;;
66607;SDS011;53462;39.616;8.824;2023-03-08T07:59:53;10.68;;;3.50;;
66607;SDS011;53462;39.616;8.824;2023-03-08T08:02:18;8.45;;;3.42;;
66607;SDS011;53462;39.616;8.824;2023-03-08T08:04:44;15.88;;;3.75;;
66607;SDS011;53462;39.616;8.824;2023-03-08T08:07:11;9.25;;;3.10;;
66607;SDS011;53462;39.616;8.824;2023-03-08T08:09:39;8.63;;;2.40;;
66607;SDS011;53462;39.616;8.824;2023-03-08T08:12:05;9.25;;;3.35;;
66607;SDS011;53462;39.616;8.824;2023-03-08T08:14:31;7.70;;;3.08;;
66607;SDS011;53462;39.616;8.824;2023-03-08T08:16:57;12.70;;;3.95;;
66607;SDS011;53462;39.616;8.824;2023-03-08T08:19:23;9.57;;;2.90;;
66607;SDS011;53462;39.616;8.824;2023-03-08T08:21:49;11.25;;;3.72;;
66607;SDS011;53462;39.616;8.824;2023-03-08T08:24:15;9.60;;;2.70;;
66607;SDS011;53462;39.616;8.824;2023-03-08T08:26:41;7.88;;;2.25;;
66607;SDS011;53462;39.616;8.824;2023-03-08T08:29:07;9.52;;;2.75;;
66607;SDS011;53462;39.616;8.824;2023-03-08T08:31:33;9.18;;;1.85;;
66607;SDS011;53462;39.616;8.824;2023-03-08T08:33:59;8.25;;;2.20;;
66607;SDS011;53462;39.616;8.824;2023-03-08T08:36:26;13.75;;;2.80;;
66607;SDS011;53462;39.616;8.824;2023-03-08T08:38:52;12.15;;;2.53;;
66607;SDS011;53462;39.616;8.824;2023-03-08T08:41:19;10.60;;;2.30;;
66607;SDS011;53462;39.616;8.824;2023-03-08T08:43:46;10.60;;;2.08;;
66607;SDS011;53462;39.616;8.824;2023-03-08T08:46:13;9.55;;;2.53;;
66607;SDS011;53462;39.616;8.824;2023-03-08T08:48:39;7.60;;;2.05;;
66607;SDS011;53462;39.616;8.824;2023-03-08T08:51:06;8.15;;;2.30;;
66607;SDS011;53462;39.616;8.824;2023-03-08T08:53:33;7.15;;;2.00;;
66607;SDS011;53462;39.616;8.824;2023-03-08T08:56:14;8.55;;;2.13;;
66607;SDS011;53462;39.616;8.824;2023-03-08T08:58:41;6.82;;;2.05;;
66607;SDS011;53462;39.616;8.824;2023-03-08T09:01:11;11.82;;;2.30;;
66607;SDS011;53462;39.616;8.824;2023-03-08T09:03:41;8.00;;;2.30;;
66607;SDS011;53462;39.616;8.824;2023-03-08T09:06:06;6.88;;;1.95;;
66607;SDS011;53462;39.616;8.824;2023-03-08T09:08:32;6.75;;;2.53;;
66607;SDS011;53462;39.616;8.824;2023-03-08T09:11:02;9.82;;;2.90;;
66607;SDS011;53462;39.616;8.824;2023-03-08T09:13:30;8.27;;;2.28;;
66607;SDS011;53462;39.616;8.824;2023-03-08T09:15:56;8.60;;;2.40;;
66607;SDS011;53462;39.616;8.824;2023-03-08T09:18:22;8.93;;;2.38;;
66607;SDS011;53462;39.616;8.824;2023-03-08T09:20:48;8.80;;;2.28;;
66607;SDS011;53462;39.616;8.824;2023-03-08T09:23:14;9.23;;;2.30;;
66607;SDS011;53462;39.616;8.824;2023-03-08T09:25:40;10.73;;;2.55;;
66607;SDS011;53462;39.616;8.824;2023-03-08T09:28:05;9.15;;;2.30;;
66607;SDS011;53462;39.616;8.824;2023-03-08T09:30:31;7.13;;;2.15;;
66607;SDS011;53462;39.616;8.824;2023-03-08T09:32:58;7.63;;;2.20;;
66607;SDS011;53462;39.616;8.824;2023-03-08T09:35:25;10.95;;;2.30;;
66607;SDS011;53462;39.616;8.824;2023-03-08T09:37:51;6.57;;;2.08;;
66607;SDS011;53462;39.616;8.824;2023-03-08T09:40:20;8.35;;;1.92;;
66607;SDS011;53462;39.616;8.824;2023-03-08T09:42:50;13.15;;;2.20;;
66607;SDS011;53462;39.616;8.824;2023-03-08T09:45:24;8.82;;;2.63;;
66607;SDS011;53462;39.616;8.824;2023-03-08T09:48:06;9.77;;;2.30;;
66607;SDS011;53462;39.616;8.824;2023-03-08T09:50:47;9.35;;;1.90;;
66607;SDS011;53462;39.616;8.824;2023-03-08T09:59:00;7.75;;;1.92;;
66607;SDS011;53462;39.616;8.824;2023-03-08T10:01:38;7.05;;;1.88;;
66607;SDS011;53462;39.616;8.824;2023-03-08T10:04:12;8.43;;;1.98;;
66607;SDS011;53462;39.616;8.824;2023-03-08T10:10:12;8.77;;;2.28;;
66607;SDS011;53462;39.616;8.824;2023-03-08T10:12:48;4.70;;;1.70;;
66607;SDS011;53462;39.616;8.824;2023-03-08T10:15:37;9.55;;;1.95;;
66607;SDS011;53462;39.616;8.824;2023-03-08T10:18:50;10.75;;;2.30;;
66607;SDS011;53462;39.616;8.824;2023-03-08T10:21:12;6.15;;;1.90;;
66607;SDS011;53462;39.616;8.824;2023-03-08T10:23:43;6.10;;;1.90;;
66607;SDS011;53462;39.616;8.824;2023-03-08T10:26:12;7.47;;;1.92;;
66607;SDS011;53462;39.616;8.824;2023-03-08T10:28:39;9.23;;;1.77;;
66607;SDS011;53462;39.616;8.824;2023-03-08T10:31:25;7.53;;;1.60;;
66607;SDS011;53462;39.616;8.824;2023-03-08T10:34:11;11.20;;;1.77;;
66607;SDS011;53462;39.616;8.824;2023-03-08T10:39:16;6.15;;;2.45;;
66607;SDS011;53462;39.616;8.824;2023-03-08T10:41:44;6.00;;;1.90;;
66607;SDS011;53462;39.616;8.824;2023-03-08T10:44:15;9.38;;;1.70;;
66607;SDS011;53462;39.616;8.824;2023-03-08T10:46:54;9.27;;;2.25;;
66607;SDS011;53462;39.616;8.824;2023-03-08T10:49:22;9.63;;;2.42;;
66607;SDS011;53462;39.616;8.824;2023-03-08T10:51:52;4.95;;;1.70;;
66607;SDS011;53462;39.616;8.824;2023-03-08T10:54:23;6.20;;;1.60;;
66607;SDS011;53462;39.616;8.824;2023-03-08T10:56:57;6.15;;;1.90;;
66607;SDS011;53462;39.616;8.824;2023-03-08T10:59:31;4.55;;;1.20;;
66607;SDS011;53462;39.616;8.824;2023-03-08T11:02:14;13.40;;;1.60;;
66607;SDS011;53462;39.616;8.824;2023-03-08T11:04:53;6.40;;;1.90;;
66607;SDS011;53462;39.616;8.824;2023-03-08T11:07:23;7.35;;;1.48;;
66607;SDS011;53462;39.616;8.824;2023-03-08T11:10:02;5.03;;;1.40;;
66607;SDS011;53462;39.616;8.824;2023-03-08T11:12:42;3.55;;;1.13;;
66607;SDS011;53462;39.616;8.824;2023-03-08T11:15:15;4.47;;;1.80;;
66607;SDS011;53462;39.616;8.824;2023-03-08T11:17:53;5.85;;;1.15;;
66607;SDS011;53462;39.616;8.824;2023-03-08T11:20:30;3.35;;;1.27;;
66607;SDS011;53462;39.616;8.824;2023-03-08T11:23:11;6.05;;;1.50;;
66607;SDS011;53462;39.616;8.824;2023-03-08T11:25:54;7.55;;;1.83;;
66607;SDS011;53462;39.616;8.824;2023-03-08T11:33:56;4.63;;;1.20;;
66607;SDS011;53462;39.616;8.824;2023-03-08T11:36:30;3.05;;;1.20;;
66607;SDS011;53462;39.616;8.824;2023-03-08T11:39:01;1.92;;;1.20;;
66607;SDS011;53462;39.616;8.824;2023-03-08T11:41:38;3.40;;;1.20;;
66607;SDS011;53462;39.616;8.824;2023-03-08T12:00:34;3.75;;;2.20;;
66607;SDS011;53462;39.616;8.824;2023-03-08T12:03:05;2.88;;;1.85;;
66607;SDS011;53462;39.616;8.824;2023-03-08T12:05:39;1.65;;;1.02;;
66607;SDS011;53462;39.616;8.824;2023-03-08T12:13:39;2.60;;;0.95;;
66607;SDS011;53462;39.616;8.824;2023-03-08T12:16:16;3.08;;;0.95;;
66607;SDS011;53462;39.616;8.824;2023-03-08T12:18:53;3.45;;;0.98;;
66607;SDS011;53462;39.616;8.824;2023-03-08T12:32:42;4.18;;;1.00;;
66607;SDS011;53462;39.616;8.824;2023-03-08T12:40:41;3.20;;;1.42;;
66607;SDS011;53462;39.616;8.824;2023-03-08T12:43:10;2.88;;;1.08;;
66607;SDS011;53462;39.616;8.824;2023-03-08T12:48:25;2.97;;;0.90;;
66607;SDS011;53462;39.616;8.824;2023-03-08T13:12:39;3.28;;;1.42;;
66607;SDS011;53462;39.616;8.824;2023-03-08T13:20:26;4.00;;;1.30;;
66607;SDS011;53462;39.616;8.824;2023-03-08T13:28:37;2.95;;;1.40;;
66607;SDS011;53462;39.616;8.824;2023-03-08T13:31:12;1.80;;;1.00;;
66607;SDS011;53462;39.616;8.824;2023-03-08T13:33:45;5.00;;;1.25;;
66607;SDS011;53462;39.616;8.824;2023-03-08T13:36:22;2.83;;;1.10;;
66607;SDS011;53462;39.616;8.824;2023-03-08T13:39:03;3.60;;;1.02;;
66607;SDS011;53462;39.616;8.824;2023-03-08T13:41:44;3.55;;;1.10;;
66607;SDS011;53462;39.616;8.824;2023-03-08T13:46:42;10.18;;;2.08;;
66607;SDS011;53462;39.616;8.824;2023-03-08T13:49:16;4.75;;;1.80;;
66607;SDS011;53462;39.616;8.824;2023-03-08T13:51:46;5.03;;;1.20;;
66607;SDS011;53462;39.616;8.824;2023-03-08T13:54:16;4.05;;;1.30;;
66607;SDS011;53462;39.616;8.824;2023-03-08T13:56:51;4.20;;;1.17;;
66607;SDS011;53462;39.616;8.824;2023-03-08T13:59:18;5.57;;;1.23;;
66607;SDS011;53462;39.616;8.824;2023-03-08T14:01:46;4.03;;;0.95;;
66607;SDS011;53462;39.616;8.824;2023-03-08T14:04:18;3.35;;;1.20;;
66607;SDS011;53462;39.616;8.824;2023-03-08T14:06:53;4.93;;;1.10;;
66607;SDS011;53462;39.616;8.824;2023-03-08T14:09:24;3.38;;;0.82;;
66607;SDS011;53462;39.616;8.824;2023-03-08T14:14:31;4.18;;;1.10;;
66607;SDS011;53462;39.616;8.824;2023-03-08T14:17:03;3.88;;;1.15;;
66607;SDS011;53462;39.616;8.824;2023-03-08T14:19:30;5.65;;;1.17;;
66607;SDS011;53462;39.616;8.824;2023-03-08T14:22:10;1.90;;;0.88;;
66607;SDS011;53462;39.616;8.824;2023-03-08T14:24:42;4.47;;;1.10;;
66607;SDS011;53462;39.616;8.824;2023-03-08T14:29:46;4.43;;;1.30;;
66607;SDS011;53462;39.616;8.824;2023-03-08T14:39:45;5.97;;;1.20;;
66607;SDS011;53462;39.616;8.824;2023-03-08T14:47:20;7.00;;;1.30;;
66607;SDS011;53462;39.616;8.824;2023-03-08T14:50:33;7.70;;;1.67;;
66607;SDS011;53462;39.616;8.824;2023-03-08T14:52:44;6.40;;;1.10;;
66607;SDS011;53462;39.616;8.824;2023-03-08T14:55:31;6.55;;;1.30;;
66607;SDS011;53462;39.616;8.824;2023-03-08T14:58:00;8.63;;;1.50;;
66607;SDS011;53462;39.616;8.824;2023-03-08T15:00:34;8.05;;;1.52;;
66607;SDS011;53462;39.616;8.824;2023-03-08T15:03:00;6.63;;;1.33;;
66607;SDS011;53462;39.616;8.824;2023-03-08T15:05:26;8.13;;;1.65;;
66607;SDS011;53462;39.616;8.824;2023-03-08T15:07:54;9.13;;;1.48;;
66607;SDS011;53462;39.616;8.824;2023-03-08T15:12:53;10.20;;;1.90;;
66607;SDS011;53462;39.616;8.824;2023-03-08T15:15:20;12.07;;;2.33;;
66607;SDS011;53462;39.616;8.824;2023-03-08T15:17:46;8.80;;;1.98;;
66607;SDS011;53462;39.616;8.824;2023-03-08T15:20:13;10.77;;;1.65;;
66607;SDS011;53462;39.616;8.824;2023-03-08T15:22:47;9.82;;;1.65;;
66607;SDS011;53462;39.616;8.824;2023-03-08T15:25:18;10.88;;;2.20;;
66607;SDS011;53462;39.616;8.824;2023-03-08T15:27:52;9.15;;;2.10;;
66607;SDS011;53462;39.616;8.824;2023-03-08T15:30:28;13.52;;;3.38;;
66607;SDS011;53462;39.616;8.824;2023-03-08T15:32:55;8.43;;;1.63;;
66607;SDS011;53462;39.616;8.824;2023-03-08T15:35:21;13.13;;;2.00;;
66607;SDS011;53462;39.616;8.824;2023-03-08T15:37:48;9.43;;;2.10;;
66607;SDS011;53462;39.616;8.824;2023-03-08T15:40:16;10.50;;;2.20;;
66607;SDS011;53462;39.616;8.824;2023-03-08T15:42:43;16.08;;;2.72;;
66607;SDS011;53462;39.616;8.824;2023-03-08T15:45:10;13.13;;;2.97;;
66607;SDS011;53462;39.616;8.824;2023-03-08T15:47:37;12.95;;;2.30;;
66607;SDS011;53462;39.616;8.824;2023-03-08T15:50:04;10.32;;;2.10;;
66607;SDS011;53462;39.616;8.824;2023-03-08T15:52:36;10.40;;;2.33;;
66607;SDS011;53462;39.616;8.824;2023-03-08T15:55:02;12.93;;;2.60;;
66607;SDS011;53462;39.616;8.824;2023-03-08T15:57:28;9.77;;;2.08;;
66607;SDS011;53462;39.616;8.824;2023-03-08T15:59:54;11.60;;;2.63;;
66607;SDS011;53462;39.616;8.824;2023-03-08T16:02:20;14.48;;;5.03;;
66607;SDS011;53462;39.616;8.824;2023-03-08T16:04:46;18.98;;;6.93;;
66607;SDS011;53462;39.616;8.824;2023-03-08T16:07:14;23.25;;;11.43;;
66607;SDS011;53462;39.616;8.824;2023-03-08T16:09:41;32.05;;;13.18;;
66607;SDS011;53462;39.616;8.824;2023-03-08T16:12:07;19.60;;;10.45;;
66607;SDS011;53462;39.616;8.824;2023-03-08T16:14:34;23.27;;;10.82;;
66607;SDS011;53462;39.616;8.824;2023-03-08T16:17:00;39.60;;;21.00;;
66607;SDS011;53462;39.616;8.824;2023-03-08T16:19:31;51.08;;;29.98;;
66607;SDS011;53462;39.616;8.824;2023-03-08T16:21:58;47.60;;;24.55;;
66607;SDS011;53462;39.616;8.824;2023-03-08T16:24:25;15.27;;;7.50;;
66607;SDS011;53462;39.616;8.824;2023-03-08T16:26:51;19.52;;;9.57;;
66607;SDS011;53462;39.616;8.824;2023-03-08T16:29:17;14.90;;;5.97;;
66607;SDS011;53462;39.616;8.824;2023-03-08T16:31:43;18.27;;;8.77;;
66607;SDS011;53462;39.616;8.824;2023-03-08T16:34:09;18.55;;;9.60;;
66607;SDS011;53462;39.616;8.824;2023-03-08T16:36:36;18.30;;;5.05;;
66607;SDS011;53462;39.616;8.824;2023-03-08T16:39:03;20.65;;;8.18;;
66607;SDS011;53462;39.616;8.824;2023-03-08T16:41:32;28.08;;;15.57;;
66607;SDS011;53462;39.616;8.824;2023-03-08T16:43:58;37.55;;;16.23;;
66607;SDS011;53462;39.616;8.824;2023-03-08T16:46:24;16.85;;;5.70;;
66607;SDS011;53462;39.616;8.824;2023-03-08T16:48:50;11.88;;;3.47;;
66607;SDS011;53462;39.616;8.824;2023-03-08T16:51:19;14.52;;;2.72;;
66607;SDS011;53462;39.616;8.824;2023-03-08T16:53:47;11.52;;;3.83;;